Trout, West Virginia
Current Conditions -  °F | °C
As of 11:55 PM on Saturday 25 Oct 2014 (Local Time) from KLWB Reporting Station
Clear Clear  
Wind Chill: 57°   Ceiling: Unl
Heat Index: 57°   Visibility: 10mi
Dew Point: 49°   Wind: 7mph
Humidity: 74%   Direction: 260°W
Pressure: 29.89"   Gusts: NA
Location:  37.9493°N, 80.5132°W
Report Text: KLWB 260355Z AUTO 26006KT 10SM CLR 14/09 A2989 RMK AO2 T01370092
Loading
Personal Weather Stations






























Interactive Weather Map
Tropical Storm Tracking
New forecast layout! Learn more

10-Day Weather Forecast

Advertisements
Track Severe Weather on mobile